CPX423 Details

Departure: Philip S.W. Goldson International Airport (MZBZ)
Arrival: Miami International Airport (KMIA) at N/A
Route: FRANT UG765 MAXIM EADEN CURSO5
Notes:


Current Weather Information
MZBZ 231200Z 36004KT 9999 -RA FEW003 BKN045 24/24 A2987 Q1011 NOSIG
KMIA 231153Z 00000KT 10SM FEW008 FEW020 SCT250 27/24 A2999 RMK AO2 SLP155 T02670239 10267 20256 51009